Time;durP1;ratioP1;P1;durP2;ratioP2;P2;SDS_P1;SDS_P2;PMS_P1;PMS_P2;Temp;Humidity;BMP_temperature;BMP_pressure;BME280_temperature;BME280_humidity;BME280_pressure;Samples;Min_cycle;Max_cycle;Signal;HPM_P1;HPM_P2
2023/07/31 00:01:18;;;;;;;;;;;;;;;19.66;100.00;100881.91;5101836;28;19924;-52
2023/07/31 00:03:45;;;;;;;;;;;;;;;19.58;100.00;100880.47;5105653;28;19991;-55
2023/07/31 00:06:10;;;;;;;;;;;;;;;19.78;100.00;100869.00;5105981;28;19916;-53
2023/07/31 00:08:36;;;;;;;;;;;;;;;19.96;100.00;100877.88;5097907;28;19983;-51
2023/07/31 00:11:01;;;;;;;;;;;;;;;19.69;100.00;100874.06;5097722;28;19921;-53
2023/07/31 00:13:26;;;;;;;;;;;;;;;19.86;100.00;100868.56;5096929;28;19927;-51
2023/07/31 00:15:51;;;;;;;;;;;;;;;19.94;100.00;100880.03;5100827;28;19946;-49
2023/07/31 00:18:17;;;;;;;;;;;;;;;19.96;100.00;100861.59;5103477;28;19916;-55
2023/07/31 00:20:42;;;;;;;;;;;;;;;20.27;100.00;100861.84;5099096;28;19917;-50
2023/07/31 00:23:08;;;;;;;;;;;;;;;20.29;100.00;100865.09;5097560;28;19938;-48
2023/07/31 00:25:33;;;;;;;;;;;;;;;20.04;100.00;100859.25;5097271;28;19938;-51
2023/07/31 00:27:59;;;;;;;;;;;;;;;19.94;100.00;100853.72;5101419;28;19920;-50
2023/07/31 00:30:26;;;;;;;;;;;;;;;20.08;100.00;100859.53;5079535;28;19917;-52
2023/07/31 00:32:53;;;;;;;;;;;;;;;20.30;100.00;100854.00;5097431;28;19983;-53
2023/07/31 00:35:18;;;;;;;;;;;;;;;20.11;100.00;100850.06;5084096;28;19916;-52
2023/07/31 00:37:44;;;;;;;;;;;;;;;20.29;100.00;100865.09;5086891;28;19920;-51
2023/07/31 00:40:11;;;;;;;;;;;;;;;20.02;100.00;100866.00;5112899;28;19917;-54
2023/07/31 00:42:36;;;;;;;;;;;;;;;20.14;100.00;100869.38;5079750;28;20418;-51
2023/07/31 00:45:02;;;;;;;;;;;;;;;19.99;100.00;100877.38;5097710;28;19980;-52
2023/07/31 00:47:29;;;;;;;;;;;;;;;19.88;100.00;100858.25;5114554;28;19920;-51
2023/07/31 00:49:56;;;;;;;;;;;;;;;19.79;100.00;100854.34;5109176;28;19917;-52
2023/07/31 00:52:21;;;;;;;;;;;;;;;20.12;100.00;100854.41;5096811;28;19991;-53
2023/07/31 00:54:48;;;;;;;;;;;;;;;19.85;100.00;100866.09;5096725;28;19980;-48
2023/07/31 00:57:14;;;;;;;;;;;;;;;20.11;100.00;100847.34;5103247;28;19920;-54
2023/07/31 00:59:39;;;;;;;;;;;;;;;20.18;100.00;100845.22;5079694;28;19927;-55
2023/07/31 01:02:05;;;;;;;;;;;;;;;20.18;100.00;100847.94;5112706;28;19917;-50
2023/07/31 01:04:31;;;;;;;;;;;;;;;20.43;100.00;100841.88;5112527;28;19923;-54
2023/07/31 01:06:57;;;;;;;;;;;;;;;20.06;100.00;100846.22;5102824;28;19916;-54
2023/07/31 01:09:26;;;;;;;;;;;;;;;19.98;100.00;100832.31;5101345;28;19917;-53
2023/07/31 01:12:00;;;;;;;;;;;;;;;20.33;100.00;100841.81;5112649;28;19917;-54
2023/07/31 01:14:25;;;;;;;;;;;;;;;20.28;100.00;100847.19;5096254;28;19984;-51
2023/07/31 01:16:51;;;;;;;;;;;;;;;20.17;100.00;100841.69;5098158;28;19927;-54
2023/07/31 01:19:19;;;;;;;;;;;;;;;20.00;100.00;100843.72;5096120;28;19917;-54
2023/07/31 01:21:45;;;;;;;;;;;;;;;19.95;100.00;100854.53;5112261;28;19912;-51
2023/07/31 01:24:10;;;;;;;;;;;;;;;20.16;100.00;100839.22;5096026;28;19928;-54
2023/07/31 01:26:38;;;;;;;;;;;;;;;19.88;100.00;100849.28;5123251;28;19916;-49
2023/07/31 01:29:10;;;;;;;;;;;;;;;20.09;100.00;100838.63;5078602;28;19917;-50
2023/07/31 01:31:36;;;;;;;;;;;;;;;20.19;100.00;100820.53;5095962;28;19916;-53
2023/07/31 01:34:02;;;;;;;;;;;;;;;19.93;100.00;100835.78;5095895;28;19977;-50
2023/07/31 01:36:27;;;;;;;;;;;;;;;19.90;100.00;100828.13;5077980;28;19920;-50
2023/07/31 01:38:57;;;;;;;;;;;;;;;20.02;100.00;100838.84;5121953;28;20011;-54
2023/07/31 01:41:23;;;;;;;;;;;;;;;19.92;100.00;100829.56;5095551;28;19920;-52
2023/07/31 01:43:49;;;;;;;;;;;;;;;19.92;100.00;100829.56;5078414;28;19919;-51
2023/07/31 01:46:14;;;;;;;;;;;;;;;19.97;100.00;100823.34;5077854;28;19943;-54
2023/07/31 01:48:40;;;;;;;;;;;;;;;20.04;100.00;100825.84;5096361;28;19916;-49
2023/07/31 01:51:05;;;;;;;;;;;;;;;20.41;100.00;100832.34;5083394;28;19917;-53
2023/07/31 01:53:31;;;;;;;;;;;;;;;19.99;100.00;100829.34;5111811;28;19920;-52
2023/07/31 01:55:57;;;;;;;;;;;;;;;20.10;100.00;100815.84;5095068;28;19917;-51
2023/07/31 01:58:22;;;;;;;;;;;;;;;20.30;100.00;100818.69;5111365;28;19917;-50
2023/07/31 02:00:48;;;;;;;;;;;;;;;20.01;100.00;100815.50;5095344;28;19923;-48
2023/07/31 02:03:13;;;;;;;;;;;;;;;19.94;100.00;100820.34;5095269;28;19917;-52
2023/07/31 02:05:49;;;;;;;;;;;;;;;19.68;100.00;100812.75;5095295;28;19947;-53
2023/07/31 02:08:14;;;;;;;;;;;;;;;19.92;100.00;100824.13;5100471;28;19917;-50
2023/07/31 02:10:39;;;;;;;;;;;;;;;20.13;100.00;100807.16;5077522;28;19939;-51
2023/07/31 02:13:05;;;;;;;;;;;;;;;20.04;100.00;100799.53;5077846;28;19916;-52
2023/07/31 02:15:30;;;;;;;;;;;;;;;20.18;100.00;100801.78;5077816;28;19920;-53
2023/07/31 02:17:56;;;;;;;;;;;;;;;20.20;100.00;100797.72;5103834;28;19920;-53
2023/07/31 02:20:21;;;;;;;;;;;;;;;19.97;100.00;100798.94;5094995;28;19991;-51
2023/07/31 02:22:47;;;;;;;;;;;;;;;19.97;100.00;100792.66;5077739;28;19924;-53
2023/07/31 02:25:13;;;;;;;;;;;;;;;19.94;100.00;100801.34;5095144;28;19937;-49
2023/07/31 02:27:38;;;;;;;;;;;;;;;20.13;100.00;100790.88;5095331;28;19939;-49
2023/07/31 02:30:03;;;;;;;;;;;;;;;19.92;100.00;100797.00;5101853;28;19916;-50
2023/07/31 02:32:29;;;;;;;;;;;;;;;19.92;100.00;100790.72;5077478;28;19951;-51
2023/07/31 02:34:54;;;;;;;;;;;;;;;20.08;100.00;100788.13;5095066;28;19916;-49
2023/07/31 02:37:20;;;;;;;;;;;;;;;20.01;100.00;100794.63;5097710;28;19928;-49
2023/07/31 02:39:46;;;;;;;;;;;;;;;19.91;100.00;100784.50;5105226;28;19923;-49
2023/07/31 02:42:12;;;;;;;;;;;;;;;20.05;100.00;100786.75;5101712;28;19934;-52
2023/07/31 02:44:38;;;;;;;;;;;;;;;20.04;100.00;100793.25;5117938;28;19913;-53
2023/07/31 02:47:03;;;;;;;;;;;;;;;20.08;100.00;100777.28;5101686;28;19916;-51
2023/07/31 02:49:29;;;;;;;;;;;;;;;20.39;100.00;100778.28;5117454;28;19924;-52
2023/07/31 02:51:54;;;;;;;;;;;;;;;20.29;100.00;100778.22;5101674;28;19938;-51
2023/07/31 02:54:21;;;;;;;;;;;;;;;20.14;100.00;100779.78;5101305;28;19916;-50
2023/07/31 02:56:47;;;;;;;;;;;;;;;20.03;100.00;100778.06;5117700;28;19920;-49
2023/07/31 02:59:13;;;;;;;;;;;;;;;20.27;100.00;100777.66;5112561;28;19916;-48
2023/07/31 03:01:39;;;;;;;;;;;;;;;20.21;100.00;100771.41;5100516;28;19931;-53
2023/07/31 03:04:05;;;;;;;;;;;;;;;20.42;100.00;100769.63;5101094;28;19916;-52
2023/07/31 03:06:30;;;;;;;;;;;;;;;20.10;100.00;100772.41;5101436;28;19939;-51
2023/07/31 03:08:56;;;;;;;;;;;;;;;20.25;100.00;100761.66;5117509;28;19916;-48
2023/07/31 03:11:21;;;;;;;;;;;;;;;20.37;100.00;100772.31;5108743;28;19916;-49
2023/07/31 03:13:47;;;;;;;;;;;;;;;20.20;100.00;100778.72;5117402;28;19952;-47
2023/07/31 03:16:13;;;;;;;;;;;;;;;20.35;100.00;100769.84;5083601;28;19931;-49
2023/07/31 03:18:39;;;;;;;;;;;;;;;20.32;100.00;100766.84;5092307;28;19992;-47
2023/07/31 03:21:04;;;;;;;;;;;;;;;20.34;100.00;100770.13;5101473;28;19916;-49
2023/07/31 03:23:30;;;;;;;;;;;;;;;20.19;100.00;100776.28;5101158;28;19931;-47
2023/07/31 03:25:59;;;;;;;;;;;;;;;20.33;100.00;100761.16;5101222;28;19923;-52
2023/07/31 03:28:27;;;;;;;;;;;;;;;20.49;100.00;100762.03;5101228;28;19920;-51
2023/07/31 03:30:53;;;;;;;;;;;;;;;20.09;100.00;100751.78;5101237;28;19966;-52
2023/07/31 03:33:18;;;;;;;;;;;;;;;20.23;100.00;100752.13;5101055;28;19943;-49
2023/07/31 03:35:45;;;;;;;;;;;;;;;20.41;100.00;100748.97;5101217;28;19926;-52
2023/07/31 03:38:10;;;;;;;;;;;;;;;20.04;100.00;100744.41;5100786;28;19955;-52
2023/07/31 03:40:35;;;;;;;;;;;;;;;20.31;100.00;100748.94;5108076;28;19916;-48
2023/07/31 03:43:01;;;;;;;;;;;;;;;19.99;100.00;100744.38;5106463;28;19940;-53
2023/07/31 03:45:26;;;;;;;;;;;;;;;19.80;100.00;100747.47;5101263;28;19916;-53
2023/07/31 03:47:53;;;;;;;;;;;;;;;19.91;100.00;100746.50;5100438;28;19944;-49
2023/07/31 03:50:19;;;;;;;;;;;;;;;20.03;100.00;100748.19;5096871;28;19912;-51
2023/07/31 03:52:47;;;;;;;;;;;;;;;20.11;100.00;100747.72;5079673;28;21305;-53
2023/07/31 03:55:12;;;;;;;;;;;;;;;20.09;100.00;100752.59;5097697;28;19917;-54
2023/07/31 03:57:38;;;;;;;;;;;;;;;20.11;100.00;100736.88;5097650;28;19920;-52
2023/07/31 04:00:03;;;;;;;;;;;;;;;19.74;100.00;100740.38;5097532;28;19917;-54
2023/07/31 04:02:37;;;;;;;;;;;;;;;19.98;100.00;100740.03;5081476;28;19916;-51
2023/07/31 04:05:03;;;;;;;;;;;;;;;20.14;100.00;100730.91;5097593;28;19923;-54
2023/07/31 04:07:28;;;;;;;;;;;;;;;20.09;100.00;100725.47;5098452;28;19946;-54
2023/07/31 04:09:54;;;;;;;;;;;;;;;20.24;100.00;100732.88;5099905;28;19939;-49
2023/07/31 04:12:19;;;;;;;;;;;;;;;20.26;100.00;100727.16;5099447;28;19924;-53
2023/07/31 04:14:45;;;;;;;;;;;;;;;20.13;100.00;100725.72;5097482;28;19916;-53
2023/07/31 04:17:10;;;;;;;;;;;;;;;20.01;100.00;100715.06;5096927;28;19967;-51
2023/07/31 04:19:36;;;;;;;;;;;;;;;20.30;100.00;100712.00;5097678;28;19917;-51
2023/07/31 04:22:01;;;;;;;;;;;;;;;20.19;100.00;100713.84;5097028;28;19936;-53
2023/07/31 04:24:27;;;;;;;;;;;;;;;20.12;100.00;100705.09;5097342;28;19917;-53
2023/07/31 04:26:53;;;;;;;;;;;;;;;20.51;100.00;100695.75;5097242;28;19970;-47
2023/07/31 04:29:19;;;;;;;;;;;;;;;20.29;100.00;100703.03;5102540;28;19916;-49
2023/07/31 04:31:44;;;;;;;;;;;;;;;20.39;100.00;100694.09;5101486;28;19917;-50
2023/07/31 04:34:11;;;;;;;;;;;;;;;20.20;100.00;100691.03;5097041;28;19952;-50
2023/07/31 04:36:37;;;;;;;;;;;;;;;20.41;100.00;100694.66;5096877;28;19956;-47
2023/07/31 04:39:02;;;;;;;;;;;;;;;20.23;100.00;100698.66;5096866;28;19916;-54
2023/07/31 04:41:28;;;;;;;;;;;;;;;20.55;100.00;100699.59;5102935;28;19916;-53
2023/07/31 04:43:53;;;;;;;;;;;;;;;20.37;100.00;100699.00;5096973;28;19942;-52
2023/07/31 04:46:19;;;;;;;;;;;;;;;20.30;100.00;100693.00;5096734;28;19917;-51
2023/07/31 04:48:44;;;;;;;;;;;;;;;20.38;100.00;100689.75;5096657;28;19917;-52
2023/07/31 04:51:10;;;;;;;;;;;;;;;20.20;100.00;100691.84;5102026;28;19920;-52
2023/07/31 04:53:36;;;;;;;;;;;;;;;20.24;100.00;100699.47;5096904;28;19917;-49
2023/07/31 04:56:02;;;;;;;;;;;;;;;20.24;100.00;100694.03;5096413;28;19917;-49
2023/07/31 04:58:28;;;;;;;;;;;;;;;20.13;100.00;100687.72;5086382;28;19999;-48
2023/07/31 05:00:53;;;;;;;;;;;;;;;20.12;100.00;100694.22;5100087;28;19936;-46
2023/07/31 05:03:19;;;;;;;;;;;;;;;20.04;100.00;100690.94;5078876;28;19935;-48
2023/07/31 05:05:44;;;;;;;;;;;;;;;20.00;100.00;100689.00;5096121;28;19992;-51
2023/07/31 05:08:10;;;;;;;;;;;;;;;19.81;100.00;100696.75;5096069;28;19921;-49
2023/07/31 05:10:35;;;;;;;;;;;;;;;19.88;100.00;100689.19;5096240;28;19916;-52
2023/07/31 05:13:01;;;;;;;;;;;;;;;19.76;100.00;100689.38;5106442;28;19917;-49
2023/07/31 05:15:26;;;;;;;;;;;;;;;19.84;100.00;100691.63;5095988;28;19916;-48
2023/07/31 05:17:52;;;;;;;;;;;;;;;19.73;100.00;100689.91;5096567;28;19952;-50
2023/07/31 05:20:17;;;;;;;;;;;;;;;19.50;100.00;100705.47;5108313;28;19923;-49
2023/07/31 05:22:43;;;;;;;;;;;;;;;19.77;100.00;100691.00;5112284;28;19927;-47
2023/07/31 05:25:08;;;;;;;;;;;;;;;19.74;100.00;100691.53;5095784;28;19951;-52
2023/07/31 05:27:34;;;;;;;;;;;;;;;19.57;100.00;100700.63;5095994;28;19917;-50
2023/07/31 05:30:00;;;;;;;;;;;;;;;19.54;100.00;100693.00;5098029;28;19920;-50
2023/07/31 05:32:25;;;;;;;;;;;;;;;19.26;100.00;100696.84;5095726;28;19916;-51
2023/07/31 05:34:52;;;;;;;;;;;;;;;19.38;100.00;100694.00;5095558;28;19917;-52
2023/07/31 05:37:17;;;;;;;;;;;;;;;19.19;100.00;100703.28;5095511;28;19920;-54
2023/07/31 05:39:43;;;;;;;;;;;;;;;19.08;100.00;100727.84;5095297;28;19976;-51
2023/07/31 05:42:08;;;;;;;;;;;;;;;19.14;100.00;100707.84;5095861;28;19916;-51
2023/07/31 05:44:34;;;;;;;;;;;;;;;19.02;100.00;100695.28;5095564;28;19916;-54
2023/07/31 05:46:59;;;;;;;;;;;;;;;19.30;100.00;100682.53;5095909;28;19924;-55
2023/07/31 05:49:25;;;;;;;;;;;;;;;19.35;100.00;100679.84;5105100;28;19945;-53
2023/07/31 05:51:50;;;;;;;;;;;;;;;19.26;100.00;100673.28;5100405;28;19947;-51
2023/07/31 05:54:16;;;;;;;;;;;;;;;19.33;100.00;100673.88;5100260;28;19927;-52
2023/07/31 05:56:41;;;;;;;;;;;;;;;19.20;100.00;100671.59;5095008;28;19924;-53
2023/07/31 05:59:08;;;;;;;;;;;;;;;19.40;100.00;100673.66;5095305;28;19916;-49
2023/07/31 06:01:33;;;;;;;;;;;;;;;19.57;100.00;100659.16;5094098;28;20322;-53
2023/07/31 06:03:59;;;;;;;;;;;;;;;19.49;100.00;100655.84;5095173;28;19912;-55
2023/07/31 06:06:24;;;;;;;;;;;;;;;19.67;100.00;100647.56;5094745;28;19916;-52
2023/07/31 06:08:50;;;;;;;;;;;;;;;19.67;100.00;100655.69;5097886;28;19924;-48
2023/07/31 06:11:15;;;;;;;;;;;;;;;19.45;100.00;100646.56;5094459;28;19923;-55
2023/07/31 06:13:41;;;;;;;;;;;;;;;19.53;100.00;100644.47;5094446;28;19984;-51
2023/07/31 06:16:06;;;;;;;;;;;;;;;19.20;100.00;100647.22;5093804;28;19916;-54
2023/07/31 06:18:32;;;;;;;;;;;;;;;19.31;100.00;100646.19;5088395;28;19931;-54
2023/07/31 06:20:57;;;;;;;;;;;;;;;19.52;100.00;100650.97;5087126;28;19916;-53
2023/07/31 06:23:22;;;;;;;;;;;;;;;19.63;100.00;100639.94;5094595;28;19923;-53
2023/07/31 06:25:48;;;;;;;;;;;;;;;19.58;100.00;100639.88;5088394;28;20268;-52
2023/07/31 06:28:14;;;;;;;;;;;;;;;19.49;100.00;100636.03;5103773;28;19938;-53
2023/07/31 06:30:39;;;;;;;;;;;;;;;19.52;100.00;100649.06;5106352;28;19930;-52
2023/07/31 06:33:05;;;;;;;;;;;;;;;19.78;100.00;100628.34;5095430;28;19917;-54
2023/07/31 06:35:30;;;;;;;;;;;;;;;20.40;100.00;100625.13;5094201;28;19924;-51
2023/07/31 06:37:56;;;;;;;;;;;;;;;20.46;100.00;100621.34;5094755;28;19984;-54
2023/07/31 06:40:22;;;;;;;;;;;;;;;19.68;100.00;100631.00;5093944;28;19924;-51
2023/07/31 06:42:47;;;;;;;;;;;;;;;19.66;100.00;100624.22;5092203;28;19944;-54
2023/07/31 06:45:13;;;;;;;;;;;;;;;19.66;100.00;100607.94;5092818;28;19939;-50
2023/07/31 06:47:38;;;;;;;;;;;;;;;19.59;100.00;100619.81;5086921;28;19916;-51
2023/07/31 06:50:05;;;;;;;;;;;;;;;19.60;100.00;100616.03;5094442;28;19920;-55
2023/07/31 06:52:30;;;;;;;;;;;;;;;19.70;100.00;100614.47;5100165;28;19950;-51
2023/07/31 06:55:03;;;;;;;;;;;;;;;19.62;100.00;100613.06;5094725;28;19916;-54
2023/07/31 06:57:28;;;;;;;;;;;;;;;19.77;100.00;100607.75;5087350;28;19924;-51
2023/07/31 06:59:54;;;;;;;;;;;;;;;19.74;100.00;100602.84;5094251;28;19924;-52
2023/07/31 07:02:19;;;;;;;;;;;;;;;19.59;100.00;100600.84;5092258;28;19926;-52
2023/07/31 07:04:45;;;;;;;;;;;;;;;19.76;100.00;100600.69;5093726;28;19924;-53
2023/07/31 07:07:10;;;;;;;;;;;;;;;19.77;100.00;100605.03;5092890;28;19916;-51
2023/07/31 07:09:36;;;;;;;;;;;;;;;19.83;100.00;100608.56;5089395;28;19943;-52
2023/07/31 07:12:01;;;;;;;;;;;;;;;19.89;100.00;100590.41;5077197;28;19917;-52
2023/07/31 07:14:26;;;;;;;;;;;;;;;19.84;100.00;100585.81;5094165;28;19952;-54
2023/07/31 07:16:52;;;;;;;;;;;;;;;19.69;100.00;100593.84;5093651;28;19921;-54
2023/07/31 07:19:17;;;;;;;;;;;;;;;19.90;100.00;100594.75;5096395;28;19946;-54
2023/07/31 07:21:43;;;;;;;;;;;;;;;19.98;100.00;100594.31;5098595;28;19987;-54
2023/07/31 07:24:08;;;;;;;;;;;;;;;20.01;100.00;100595.66;5096669;28;19916;-55
2023/07/31 07:26:34;;;;;;;;;;;;;;;20.03;100.00;100585.34;5098012;28;19920;-48
2023/07/31 07:29:01;;;;;;;;;;;;;;;19.96;100.00;100592.94;5098098;28;19920;-53
2023/07/31 07:31:27;;;;;;;;;;;;;;;20.20;100.00;100585.97;5093597;28;19977;-53
2023/07/31 07:33:53;;;;;;;;;;;;;;;20.24;100.00;100586.25;5101402;28;19986;-55
2023/07/31 07:36:18;;;;;;;;;;;;;;;20.27;100.00;100587.59;5086826;28;20000;-53
2023/07/31 07:38:43;;;;;;;;;;;;;;;20.19;100.00;100592.47;5095011;28;19917;-52
2023/07/31 07:41:09;;;;;;;;;;;;;;;20.11;100.00;100594.88;5099200;28;19919;-53
2023/07/31 07:43:35;;;;;;;;;;;;;;;20.25;100.00;100587.06;5092507;28;19920;-55
2023/07/31 07:46:00;;;;;;;;;;;;;;;20.28;100.00;100586.50;5089514;28;19925;-54
2023/07/31 07:48:26;;;;;;;;;;;;;;;20.20;100.00;100582.44;5089192;28;19992;-53
2023/07/31 07:50:51;;;;;;;;;;;;;;;20.02;100.00;100597.28;5097078;28;19916;-56
2023/07/31 07:53:17;;;;;;;;;;;;;;;20.15;100.00;100590.53;5098473;28;19925;-49
2023/07/31 07:55:42;;;;;;;;;;;;;;;20.47;100.00;100579.50;5091594;28;19944;-50
2023/07/31 07:58:08;;;;;;;;;;;;;;;20.29;100.00;100582.72;5097418;28;19920;-53
2023/07/31 08:00:33;;;;;;;;;;;;;;;20.33;100.00;100586.56;5093056;28;19923;-52
2023/07/31 08:02:59;;;;;;;;;;;;;;;20.52;100.00;100586.03;5097153;28;19916;-54
2023/07/31 08:05:25;;;;;;;;;;;;;;;20.35;100.00;100587.09;5093947;28;19917;-47
2023/07/31 08:07:50;;;;;;;;;;;;;;;20.20;100.00;100591.38;5097116;28;19923;-51
2023/07/31 08:10:16;;;;;;;;;;;;;;;20.49;100.00;100577.34;5103040;28;19916;-54
2023/07/31 08:12:41;;;;;;;;;;;;;;;20.17;100.00;100574.81;5092503;28;19969;-51
2023/07/31 08:15:07;;;;;;;;;;;;;;;20.18;100.00;100571.00;5097118;28;19917;-47
2023/07/31 08:17:32;;;;;;;;;;;;;;;20.43;100.00;100567.56;5083259;28;19924;-52
2023/07/31 08:19:58;;;;;;;;;;;;;;;20.36;100.00;100567.00;5096770;28;19916;-55
2023/07/31 08:22:23;;;;;;;;;;;;;;;20.57;100.00;100573.28;5089205;28;19923;-55
2023/07/31 08:24:49;;;;;;;;;;;;;;;20.46;100.00;100566.22;5096959;28;19934;-52
2023/07/31 08:27:14;;;;;;;;;;;;;;;20.53;100.00;100574.06;5096696;28;19920;-50
2023/07/31 08:29:40;;;;;;;;;;;;;;;20.36;100.00;100577.88;5096982;28;19917;-50
2023/07/31 08:32:06;;;;;;;;;;;;;;;20.33;100.00;100573.78;5097470;28;19944;-49
2023/07/31 08:34:31;;;;;;;;;;;;;;;20.26;100.00;100570.50;5098260;28;19916;-51
2023/07/31 08:36:57;;;;;;;;;;;;;;;20.54;100.00;100573.03;5094545;28;19948;-53
2023/07/31 08:39:22;;;;;;;;;;;;;;;20.43;100.00;100566.75;5087004;28;19924;-58
2023/07/31 08:41:47;;;;;;;;;;;;;;;20.17;100.00;100562.06;5095706;28;19927;-58
2023/07/31 08:44:13;;;;;;;;;;;;;;;20.44;100.00;100561.03;5095843;28;19921;-56
2023/07/31 08:46:40;;;;;;;;;;;;;;;20.28;100.00;100564.78;5096188;28;19976;-58
2023/07/31 08:49:08;;;;;;;;;;;;;;;20.29;100.00;100566.44;5094871;28;19946;-59
2023/07/31 08:51:36;;;;;;;;;;;;;;;20.27;100.00;100563.16;5094940;28;19916;-59
2023/07/31 08:54:03;;;;;;;;;;;;;;;20.28;100.00;100570.22;5095827;28;19935;-58
2023/07/31 08:56:30;;;;;;;;;;;;;;;20.19;100.00;100568.03;5105513;28;19966;-57
2023/07/31 08:58:55;;;;;;;;;;;;;;;20.30;100.00;100566.16;5098492;28;19978;-59
2023/07/31 09:01:21;;;;;;;;;;;;;;;20.28;100.00;100564.78;5099495;28;19920;-58
2023/07/31 09:03:47;;;;;;;;;;;;;;;20.27;100.00;100563.16;5097943;28;19925;-58
2023/07/31 09:06:13;;;;;;;;;;;;;;;20.19;100.00;100573.47;5095680;28;19923;-57
2023/07/31 09:08:41;;;;;;;;;;;;;;;20.01;100.00;100571.22;5097497;28;19916;-56
2023/07/31 09:11:06;;;;;;;;;;;;;;;20.06;100.00;100563.09;5096127;28;19916;-58
2023/07/31 09:13:33;;;;;;;;;;;;;;;20.33;100.00;100572.97;5095785;28;19916;-59
2023/07/31 09:15:58;;;;;;;;;;;;;;;20.08;100.00;100582.69;5095874;28;19921;-58
2023/07/31 09:18:24;;;;;;;;;;;;;;;20.31;100.00;100573.22;5095700;28;19985;-57
2023/07/31 09:21:05;;;;;;;;;;;;;;;20.01;100.00;100577.47;5099462;28;19920;-56
2023/07/31 09:23:44;;;;;;;;;;;;;;;20.45;100.00;100568.09;5100845;28;19920;-58
2023/07/31 09:26:09;;;;;;;;;;;;;;;20.28;100.00;100564.78;5095743;28;19912;-60
2023/07/31 09:28:36;;;;;;;;;;;;;;;20.31;100.00;100558.84;5095548;28;19923;-59
2023/07/31 09:31:01;;;;;;;;;;;;;;;20.57;100.00;100562.41;5095393;28;19916;-57
2023/07/31 09:33:26;;;;;;;;;;;;;;;20.51;100.00;100552.63;5094859;28;19920;-58
2023/07/31 09:35:52;;;;;;;;;;;;;;;20.87;100.00;100541.00;5105118;28;19920;-57
2023/07/31 09:38:17;;;;;;;;;;;;;;;20.82;100.00;100543.72;5094808;28;19931;-60
2023/07/31 09:40:44;;;;;;;;;;;;;;;20.75;100.00;100539.34;5094391;28;19923;-60
2023/07/31 09:43:11;;;;;;;;;;;;;;;21.01;100.00;100530.41;5092930;28;19951;-59
2023/07/31 09:45:37;;;;;;;;;;;;;;;20.97;100.00;100532.03;5087020;28;19912;-57
2023/07/31 09:48:06;;;;;;;;;;;;;;;21.12;100.00;100532.03;5075888;28;19942;-56
2023/07/31 09:50:31;;;;;;;;;;;;;;;21.46;100.00;100533.31;5084054;28;19912;-60
2023/07/31 09:52:57;;;;;;;;;;;;;;;21.30;100.00;100524.38;5089450;28;19944;-58
2023/07/31 09:55:22;;;;;;;;;;;;;;;21.48;100.00;100526.50;5069062;28;19985;-58
2023/07/31 09:57:48;;;;;;;;;;;;;;;21.75;100.00;100529.97;5076788;28;19931;-58
2023/07/31 10:00:15;;;;;;;;;;;;;;;21.56;100.00;100527.84;5081399;28;19948;-59
2023/07/31 10:02:41;;;;;;;;;;;;;;;21.87;100.00;100527.75;5092361;28;19926;-58
2023/07/31 10:05:07;;;;;;;;;;;;;;;21.53;100.00;100522.97;5094961;28;19917;-55
2023/07/31 10:07:35;;;;;;;;;;;;;;;21.68;100.00;100521.28;5094514;28;19912;-59
2023/07/31 10:10:03;;;;;;;;;;;;;;;21.73;100.00;100515.84;5094599;28;19958;-59
2023/07/31 10:12:29;;;;;;;;;;;;;;;21.82;100.00;100521.53;5072000;28;19917;-57
2023/07/31 10:14:55;;;;;;;;;;;;;;;21.85;100.00;100519.03;5080029;28;19924;-59
2023/07/31 10:17:21;;;;;;;;;;;;;;;21.97;100.00;100515.19;5082490;28;19928;-57
2023/07/31 10:19:49;;;;;;;;;;;;;;;21.84;100.00;100522.84;5085383;28;19938;-58
2023/07/31 10:22:15;;;;;;;;;;;;;;;21.99;100.00;100515.72;5101118;28;19923;-58
2023/07/31 10:24:44;;;;;;;;;;;;;;;21.88;100.00;100523.13;5094284;28;19947;-58
2023/07/31 10:27:10;;;;;;;;;;;;;;;21.97;100.00;100521.44;5094161;28;19916;-58
2023/07/31 10:29:36;;;;;;;;;;;;;;;22.07;100.00;100526.00;5085431;28;19920;-58
2023/07/31 10:32:06;;;;;;;;;;;;;;;22.31;100.00;100519.88;5092787;28;19917;-58
2023/07/31 10:34:33;;;;;;;;;;;;;;;22.26;100.00;100515.28;5089268;28;19927;-58
2023/07/31 10:37:18;;;;;;;;;;;;;;;22.25;100.00;100529.19;5095870;28;19921;-58
2023/07/31 10:39:43;;;;;;;;;;;;;;;22.13;100.00;100518.63;5093505;28;19924;-58
2023/07/31 10:42:09;;;;;;;;;;;;;;;21.99;100.00;100521.16;5101520;28;19916;-58
2023/07/31 10:44:35;;;;;;;;;;;;;;;21.99;100.00;100519.25;5099182;28;19917;-58
2023/07/31 10:47:00;;;;;;;;;;;;;;;22.00;100.00;100517.34;5093895;28;19916;-56
2023/07/31 10:49:29;;;;;;;;;;;;;;;21.85;100.00;100521.75;5094037;28;19916;-58
2023/07/31 10:51:55;;;;;;;;;;;;;;;21.74;100.00;100522.91;5109920;28;19944;-56
2023/07/31 10:54:21;;;;;;;;;;;;;;;21.77;100.00;100522.34;5104800;28;19977;-58
2023/07/31 10:56:47;;;;;;;;;;;;;;;21.93;100.00;100523.09;5083167;28;19980;-56
2023/07/31 10:59:13;;;;;;;;;;;;;;;21.94;100.00;100518.47;5097046;28;19916;-57
2023/07/31 11:01:53;;;;;;;;;;;;;;;21.73;100.00;100516.63;5097742;28;19912;-57
2023/07/31 11:04:22;;;;;;;;;;;;;;;21.50;100.00;100512.63;5097974;28;19935;-56
2023/07/31 11:07:01;;;;;;;;;;;;;;;21.60;100.00;100509.84;5106110;28;19934;-58
2023/07/31 11:09:30;;;;;;;;;;;;;;;21.80;100.00;100520.97;5097931;28;19922;-58
2023/07/31 11:11:56;;;;;;;;;;;;;;;21.88;100.00;100521.19;5097967;28;19916;-55
2023/07/31 11:14:21;;;;;;;;;;;;;;;21.75;100.00;100524.53;5102601;28;19983;-59
2023/07/31 11:16:49;;;;;;;;;;;;;;;22.01;100.00;100503.44;5097768;28;19950;-58
2023/07/31 11:19:20;;;;;;;;;;;;;;;21.85;100.00;100524.47;5097980;28;19924;-59
2023/07/31 11:21:46;;;;;;;;;;;;;;;22.15;100.00;100511.00;5097991;28;19916;-58
2023/07/31 11:24:12;;;;;;;;;;;;;;;22.41;100.00;100516.28;5097814;28;19920;-58
2023/07/31 11:26:37;;;;;;;;;;;;;;;22.46;100.00;100514.38;5097786;28;19913;-58
2023/07/31 11:29:10;;;;;;;;;;;;;;;22.28;100.00;100504.94;5098072;28;19924;-58
2023/07/31 11:31:41;;;;;;;;;;;;;;;22.62;100.00;100500.63;5097755;28;19912;-58
2023/07/31 11:34:07;;;;;;;;;;;;;;;22.87;100.00;100515.13;5098023;28;19924;-57
2023/07/31 11:36:32;;;;;;;;;;;;;;;22.64;100.00;100487.53;5097365;28;19920;-57
2023/07/31 11:39:04;;;;;;;;;;;;;;;22.54;100.00;100491.16;5097606;28;19931;-58
2023/07/31 11:41:30;;;;;;;;;;;;;;;22.67;100.00;100488.84;5097434;28;19912;-56
2023/07/31 11:43:59;;;;;;;;;;;;;;;22.88;100.00;100503.13;5105386;28;19920;-55
2023/07/31 11:46:24;;;;;;;;;;;;;;;22.59;100.00;100493.00;5106475;28;19987;-56
2023/07/31 11:48:50;;;;;;;;;;;;;;;23.31;100.00;100511.47;5097640;28;19927;-58
2023/07/31 11:51:16;;;;;;;;;;;;;;;22.48;100.00;100504.00;5097200;28;19931;-57
2023/07/31 11:53:42;;;;;;;;;;;;;;;22.76;100.00;100498.06;5101832;28;19944;-57
2023/07/31 11:56:10;;;;;;;;;;;;;;;22.66;100.00;100498.97;5103081;28;19935;-56
2023/07/31 11:58:36;;;;;;;;;;;;;;;22.56;100.00;100513.47;5097488;28;19927;-58
2023/07/31 12:01:02;;;;;;;;;;;;;;;22.53;100.00;100497.69;5097015;28;19917;-57
2023/07/31 12:03:28;;;;;;;;;;;;;;;22.38;100.00;100512.22;5098074;28;20261;-55
2023/07/31 12:05:54;;;;;;;;;;;;;;;22.37;100.00;100513.28;5102837;28;19917;-53
2023/07/31 12:08:20;;;;;;;;;;;;;;;22.54;100.00;100503.94;5079631;28;19930;-58
2023/07/31 12:10:47;;;;;;;;;;;;;;;22.41;100.00;100514.38;5078377;28;19917;-58
2023/07/31 12:13:19;;;;;;;;;;;;;;;22.24;100.00;100505.78;5105089;28;19923;-55
2023/07/31 12:15:45;;;;;;;;;;;;;;;22.13;100.00;100516.72;5107968;28;19952;-56
2023/07/31 12:18:14;;;;;;;;;;;;;;;22.29;100.00;100522.91;5106254;28;19954;-57
2023/07/31 12:20:41;;;;;;;;;;;;;;;22.59;100.00;100512.91;5093833;28;19936;-58
2023/07/31 12:23:07;;;;;;;;;;;;;;;22.51;100.00;100524.41;5097206;28;20025;-58